Time;durP1;ratioP1;P1;durP2;ratioP2;P2;SDS_P1;SDS_P2;PMS_P1;PMS_P2;Temp;Humidity;BMP_temperature;BMP_pressure;BME280_temperature;BME280_humidity;BME280_pressure;Samples;Min_cycle;Max_cycle;Signal;HPM_P1;HPM_P2
2024/01/16 04:58:47;;;;;;;7.07;4.55;;;;;;;3.16;62.96;99726.41;5605913;31;80031;-54
2024/01/16 05:01:50;;;;;;;7.45;4.65;;;;;;;3.16;62.96;99726.41;5603727;31;33386;-54
2024/01/16 05:04:53;;;;;;;7.53;5.00;;;;;;;2.67;64.34;99731.59;5603558;31;33586;-54
2024/01/16 05:07:55;;;;;;;8.23;4.72;;;;;;;2.70;64.67;99737.19;5603723;31;33580;-54
2024/01/16 05:10:58;;;;;;;6.87;4.93;;;;;;;2.74;62.98;99737.50;5603540;31;35070;-54
2024/01/16 05:14:00;;;;;;;7.40;4.55;;;;;;;2.89;71.17;99734.28;5603528;31;34268;-55
2024/01/16 05:17:03;;;;;;;7.40;4.82;;;;;;;2.93;63.22;99746.75;5603412;31;33533;-54
2024/01/16 05:20:06;;;;;;;5.20;3.75;;;;;;;2.88;64.13;99753.81;5603492;31;33538;-54
2024/01/16 05:23:08;;;;;;;5.78;3.95;;;;;;;2.83;62.50;99757.22;5603329;31;33499;-54
2024/01/16 05:26:11;;;;;;;6.00;4.30;;;;;;;2.83;65.94;99763.31;5603389;31;33635;-54
2024/01/16 05:29:13;;;;;;;5.72;3.87;;;;;;;2.98;64.27;99769.84;5603439;31;33580;-55
2024/01/16 05:32:16;;;;;;;6.65;4.45;;;;;;;2.94;61.62;99772.19;5603253;31;33535;-54
2024/01/16 05:35:18;;;;;;;6.75;4.43;;;;;;;2.86;62.18;99783.22;5603187;31;33728;-54
2024/01/16 05:38:21;;;;;;;7.97;4.70;;;;;;;2.80;62.51;99784.97;5603211;31;33545;-54
2024/01/16 05:41:23;;;;;;;6.07;3.87;;;;;;;2.82;62.72;99787.41;5603131;31;34317;-54
2024/01/16 05:44:26;;;;;;;7.72;4.90;;;;;;;2.85;61.92;99796.66;5603348;31;34278;-54
2024/01/16 05:47:28;;;;;;;6.55;4.20;;;;;;;2.92;62.14;99792.81;5603143;31;33750;-54
2024/01/16 05:50:34;;;;;;;5.85;4.03;;;;;;;2.88;63.15;99802.31;5603382;31;33238;-59
2024/01/16 05:53:37;;;;;;;6.90;4.50;;;;;;;3.00;61.91;99807.47;5603137;31;33868;-59
2024/01/16 05:56:40;;;;;;;7.28;4.50;;;;;;;3.04;61.51;99808.59;5602723;31;33609;-59
2024/01/16 05:59:42;;;;;;;6.43;3.95;;;;;;;2.92;62.59;99818.50;5603007;31;34383;-59
2024/01/16 06:02:45;;;;;;;9.77;4.35;;;;;;;2.83;61.43;99810.97;5603128;31;33640;-58
2024/01/16 06:05:48;;;;;;;5.97;4.32;;;;;;;2.75;61.82;99816.69;5603065;31;33656;-59
2024/01/16 06:08:50;;;;;;;7.62;4.37;;;;;;;2.99;62.65;99821.78;5595538;31;33593;-59
2024/01/16 06:11:53;;;;;;;6.78;3.90;;;;;;;2.98;74.64;99826.28;5589589;31;33692;-59
2024/01/16 06:14:57;;;;;;;10.95;4.20;;;;;;;2.80;62.01;99831.81;5588013;31;34287;-59
2024/01/16 06:18:00;;;;;;;7.95;4.18;;;;;;;2.83;62.37;99837.44;5580258;31;33497;-59
2024/01/16 06:21:03;;;;;;;6.40;4.30;;;;;;;2.81;65.27;99852.78;5589049;31;33653;-59
2024/01/16 06:24:06;;;;;;;6.35;4.22;;;;;;;2.72;62.07;99846.28;5588409;31;33447;-59
2024/01/16 06:27:08;;;;;;;5.70;3.75;;;;;;;2.70;63.91;99852.84;5588950;31;33653;-59
2024/01/16 06:30:11;;;;;;;7.40;4.28;;;;;;;2.81;60.89;99854.59;5588722;31;33696;-59
2024/01/16 06:33:14;;;;;;;8.50;4.57;;;;;;;2.70;60.60;99858.94;5587622;31;33633;-59
2024/01/16 06:36:19;;;;;;;10.90;4.25;;;;;;;2.63;61.30;99874.19;5585997;31;33655;-59
2024/01/16 06:39:21;;;;;;;6.68;4.10;;;;;;;2.61;61.41;99876.25;5585424;31;33757;-58
2024/01/16 06:42:24;;;;;;;8.13;4.53;;;;;;;2.39;62.22;99885.94;5588598;31;33598;-59
2024/01/16 06:45:26;;;;;;;6.72;4.30;;;;;;;2.53;62.11;99882.75;5588098;31;33723;-58
2024/01/16 06:48:29;;;;;;;7.20;4.18;;;;;;;2.52;62.44;99886.44;5587335;31;33268;-59
2024/01/16 06:51:31;;;;;;;6.32;4.53;;;;;;;2.57;62.54;99904.25;5588078;31;33559;-59
2024/01/16 06:54:34;;;;;;;8.02;4.45;;;;;;;2.71;60.93;99896.78;5587734;31;33691;-58
2024/01/16 06:57:36;;;;;;;6.60;4.37;;;;;;;2.51;60.87;99905.97;5588332;31;33681;-59
2024/01/16 07:00:41;;;;;;;7.95;4.62;;;;;;;2.59;62.92;99912.75;5587697;31;34369;-54
2024/01/16 07:03:43;;;;;;;12.18;5.43;;;;;;;2.82;61.61;99909.97;5588872;31;33645;-55
2024/01/16 07:06:47;;;;;;;9.50;5.87;;;;;;;2.67;59.28;99922.13;5588162;31;34397;-55
2024/01/16 07:09:50;;;;;;;8.38;4.20;;;;;;;2.81;59.82;99924.25;5582718;31;33705;-55
2024/01/16 07:12:53;;;;;;;7.50;5.37;;;;;;;2.80;58.49;99924.47;5587617;31;33653;-55
2024/01/16 07:15:55;;;;;;;7.45;4.18;;;;;;;2.65;59.55;99938.25;5587826;31;32999;-54
2024/01/16 07:18:58;;;;;;;9.48;4.20;;;;;;;2.68;59.01;99936.97;5588088;31;35136;-55
2024/01/16 07:22:00;;;;;;;6.65;3.85;;;;;;;2.75;60.11;99946.38;5580639;31;33716;-56
2024/01/16 07:25:03;;;;;;;7.28;4.18;;;;;;;2.82;59.22;99959.47;5586193;31;33335;-55
2024/01/16 07:28:05;;;;;;;8.15;3.80;;;;;;;2.97;58.82;99966.84;5583809;31;34227;-54
2024/01/16 07:31:09;;;;;;;5.50;4.12;;;;;;;2.96;59.56;99967.88;5587297;31;33563;-54
2024/01/16 07:34:12;;;;;;;11.12;4.35;;;;;;;3.06;58.42;99978.66;5587840;31;34188;-55
2024/01/16 07:37:15;;;;;;;6.90;4.10;;;;;;;3.21;68.29;99983.38;5587211;31;33549;-54
2024/01/16 07:40:18;;;;;;;11.45;4.43;;;;;;;3.13;60.20;99986.44;5588630;31;33652;-55
2024/01/16 07:43:20;;;;;;;6.00;4.00;;;;;;;3.21;58.47;99994.78;5588239;31;33620;-54
2024/01/16 07:46:22;;;;;;;5.93;3.70;;;;;;;3.36;61.42;99996.06;5587219;31;34248;-54
2024/01/16 07:49:26;;;;;;;5.95;4.03;;;;;;;3.47;59.04;100003.91;5588247;31;33766;-54
2024/01/16 07:52:28;;;;;;;12.75;4.10;;;;;;;3.34;57.25;100004.25;5587930;31;33630;-54
2024/01/16 07:55:31;;;;;;;9.93;4.25;;;;;;;3.42;57.25;100003.84;5587889;31;33671;-55
2024/01/16 07:58:33;;;;;;;9.32;3.75;;;;;;;3.39;57.96;100016.78;5587112;31;33699;-54
2024/01/16 08:01:35;;;;;;;8.35;3.90;;;;;;;3.53;58.18;100010.91;5588607;31;33489;-55
2024/01/16 08:04:38;;;;;;;7.32;4.30;;;;;;;3.46;57.41;100020.06;5587836;31;33694;-56
2024/01/16 08:07:44;;;;;;;10.00;4.20;;;;;;;3.49;57.09;100025.69;5587348;31;34259;-54
2024/01/16 08:10:47;;;;;;;7.00;4.47;;;;;;;3.58;58.10;100030.59;5587091;31;33720;-55
2024/01/16 08:13:49;;;;;;;6.80;3.90;;;;;;;3.68;59.82;100036.84;5587569;31;33744;-55
2024/01/16 08:16:51;;;;;;;7.10;3.92;;;;;;;3.62;56.18;100035.16;5581991;31;35208;-56
2024/01/16 08:19:54;;;;;;;13.38;4.10;;;;;;;3.73;56.82;100033.44;5585796;31;33842;-56
2024/01/16 08:22:56;;;;;;;11.15;4.05;;;;;;;3.79;60.03;100042.28;5586886;31;33682;-55
2024/01/16 08:25:58;;;;;;;8.15;3.70;;;;;;;3.83;55.32;100051.34;5584979;31;33614;-55
2024/01/16 08:29:01;;;;;;;7.32;3.78;;;;;;;3.77;55.50;100047.81;5586805;31;34379;-55
2024/01/16 08:32:04;;;;;;;10.88;3.80;;;;;;;3.88;55.83;100044.28;5586093;31;33688;-55
2024/01/16 08:35:07;;;;;;;9.45;3.45;;;;;;;3.90;53.88;100066.03;5586409;31;34412;-55
2024/01/16 08:38:09;;;;;;;9.77;3.80;;;;;;;3.87;53.54;100060.44;5583483;31;33718;-55
2024/01/16 08:41:11;;;;;;;6.90;3.53;;;;;;;3.94;55.18;100061.06;5580430;31;34256;-55
2024/01/16 08:44:14;;;;;;;8.63;3.85;;;;;;;4.10;56.97;100073.47;5573272;31;33633;-55
2024/01/16 08:47:17;;;;;;;8.55;3.80;;;;;;;4.12;52.95;100075.91;5568409;32;33705;-55
2024/01/16 08:50:19;;;;;;;5.57;3.62;;;;;;;4.12;53.33;100070.59;5577224;31;34283;-55
2024/01/16 08:53:23;;;;;;;9.10;3.67;;;;;;;4.15;53.90;100073.56;5587452;31;33859;-55
2024/01/16 08:56:25;;;;;;;5.72;3.58;;;;;;;4.22;53.74;100073.38;5586799;31;33595;-55
2024/01/16 08:59:28;;;;;;;7.30;4.10;;;;;;;4.31;52.08;100068.47;5585894;31;33638;-55
2024/01/16 09:02:32;;;;;;;6.78;3.05;;;;;;;4.39;52.11;100070.69;5585623;31;33614;-55
2024/01/16 09:05:38;;;;;;;;;;;;;;;4.33;51.55;100090.25;5587233;31;33636;-54
2024/01/16 09:08:44;;;;;;;6.22;3.15;;;;;;;4.30;51.21;100088.06;5587029;31;34640;-55
2024/01/16 09:11:46;;;;;;;7.85;3.30;;;;;;;4.31;50.94;100093.16;5587067;31;33566;-55
2024/01/16 09:14:49;;;;;;;4.87;3.03;;;;;;;4.41;50.59;100097.78;5586573;31;33710;-55
2024/01/16 09:17:51;;;;;;;6.60;3.45;;;;;;;4.48;50.00;100101.06;5587428;31;34267;-55
2024/01/16 09:20:55;;;;;;;8.13;3.08;;;;;;;4.50;49.93;100093.63;5567888;32;33664;-56
2024/01/16 09:23:57;;;;;;;6.37;2.78;;;;;;;4.52;51.76;100090.75;5572421;31;34292;-56
2024/01/16 09:27:00;;;;;;;5.72;3.33;;;;;;;4.52;49.16;100085.44;5586699;31;33649;-56
2024/01/16 09:30:04;;;;;;;6.50;2.90;;;;;;;4.56;56.92;100087.34;5587562;31;34276;-56
2024/01/16 09:33:06;;;;;;;9.43;2.50;;;;;;;4.58;50.07;100090.56;5586802;31;33558;-56
2024/01/16 09:36:10;;;;;;;6.40;2.85;;;;;;;4.65;49.01;100085.88;5586948;31;34821;-56
2024/01/16 09:39:13;;;;;;;5.57;2.83;;;;;;;4.62;49.09;100083.69;5585090;31;35211;-57
2024/01/16 09:42:19;;;;;;;;;;;;;;;4.73;48.65;100081.97;5586668;31;33562;-57
2024/01/16 09:45:21;;;;;;;8.05;2.95;;;;;;;4.71;49.09;100094.69;5586111;31;34513;-56
2024/01/16 09:48:26;;;;;;;8.27;3.47;;;;;;;4.71;48.08;100095.50;5587449;31;33632;-56
2024/01/16 09:51:29;;;;;;;10.63;3.10;;;;;;;4.81;48.91;100089.50;5589291;31;33610;-57
2024/01/16 09:54:31;;;;;;;5.28;2.72;;;;;;;4.86;51.78;100081.56;5589051;31;33519;-56
2024/01/16 09:57:40;;;;;;;7.53;3.33;;;;;;;5.01;48.97;100088.91;5589494;31;33893;-57
2024/01/16 10:00:43;;;;;;;4.93;2.85;;;;;;;5.10;50.92;100097.22;5587028;31;34169;-57
2024/01/16 10:03:46;;;;;;;6.10;2.90;;;;;;;5.16;47.26;100091.72;5586488;31;32407;-57
2024/01/16 10:06:51;;;;;;;5.65;2.87;;;;;;;5.22;47.50;100079.28;5585411;31;33754;-56
2024/01/16 10:09:57;;;;;;;6.37;3.00;;;;;;;5.22;49.99;100097.09;5588029;31;33699;-56
2024/01/16 10:13:00;;;;;;;7.37;3.20;;;;;;;5.16;46.94;100083.72;5579186;31;33644;-56
2024/01/16 10:16:03;;;;;;;5.45;2.80;;;;;;;5.17;48.51;100085.34;5580735;31;33656;-56
2024/01/16 10:19:06;;;;;;;6.60;3.37;;;;;;;5.03;47.50;100083.34;5585027;31;32444;-56
2024/01/16 10:22:08;;;;;;;5.57;3.00;;;;;;;5.17;47.51;100087.22;5584146;31;34039;-56
2024/01/16 10:25:16;;;;;;;7.10;2.60;;;;;;;5.41;49.40;100093.81;5579984;31;33350;-56
2024/01/16 10:28:20;;;;;;;5.00;2.60;;;;;;;5.37;45.86;100099.91;5589058;31;33637;-56
2024/01/16 10:31:31;;;;;;;4.95;2.90;;;;;;;5.32;47.60;100094.53;5587586;31;33665;-58
2024/01/16 10:34:33;;;;;;;6.32;3.03;;;;;;;4.97;48.45;100098.44;5587220;31;33596;-58
2024/01/16 10:37:49;;;;;;;5.75;2.95;;;;;;;4.87;46.24;100103.66;5587594;31;33315;-58
2024/01/16 10:41:12;;;;;;;6.68;2.65;;;;;;;5.01;51.08;100096.88;5569565;31;33752;-59
2024/01/16 10:44:15;;;;;;;5.12;2.53;;;;;;;5.13;46.29;100100.22;5585443;31;34465;-59
2024/01/16 10:47:18;;;;;;;6.97;3.00;;;;;;;5.07;46.21;100095.88;5587250;31;33562;-59
2024/01/16 10:50:20;;;;;;;7.82;2.85;;;;;;;5.28;46.27;100101.41;5587473;31;34445;-58
2024/01/16 10:53:25;;;;;;;5.53;2.72;;;;;;;5.15;46.08;100100.75;5582940;31;33722;-59
2024/01/16 10:56:28;;;;;;;7.12;3.72;;;;;;;5.22;46.50;100083.78;5572580;31;33523;-59
2024/01/16 10:59:46;;;;;;;12.43;2.97;;;;;;;5.28;50.44;100083.59;5581338;31;33202;-59
2024/01/16 11:03:12;;;;;;;6.37;3.35;;;;;;;5.38;47.81;100096.97;5582023;31;33693;-59
2024/01/16 11:06:17;;;;;;;7.80;3.30;;;;;;;5.36;45.94;100091.13;5583689;31;33767;-59
2024/01/16 11:09:20;;;;;;;7.30;3.30;;;;;;;5.30;49.24;100086.81;5588311;31;33678;-59
2024/01/16 11:12:25;;;;;;;7.03;3.60;;;;;;;5.25;48.49;100089.41;5585467;31;32289;-57
2024/01/16 11:15:28;;;;;;;7.25;3.45;;;;;;;5.30;47.61;100078.03;5583488;31;33890;-59
2024/01/16 11:18:32;;;;;;;6.53;3.15;;;;;;;5.53;50.82;100084.84;5581716;31;33711;-59
2024/01/16 11:21:36;;;;;;;10.00;3.37;;;;;;;5.49;46.49;100079.25;5577434;31;33221;-59
2024/01/16 11:24:40;;;;;;;8.80;3.60;;;;;;;5.39;45.85;100071.19;5579420;31;33567;-59
2024/01/16 11:27:44;;;;;;;7.47;3.35;;;;;;;5.42;46.13;100081.31;5577971;31;33272;-59
2024/01/16 11:30:47;;;;;;;7.00;3.17;;;;;;;5.44;45.87;100076.56;5581162;31;32235;-58
2024/01/16 11:33:50;;;;;;;7.50;3.30;;;;;;;5.42;45.69;100079.44;5582941;31;34205;-59
2024/01/16 11:36:55;;;;;;;6.90;3.45;;;;;;;5.46;53.57;100084.25;5568900;31;33620;-58
2024/01/16 11:40:16;;;;;;;6.33;3.27;;;;;;;5.44;45.86;100070.44;5580080;31;33844;-56
2024/01/16 11:43:34;;;;;;;13.62;3.70;;;;;;;5.46;47.88;100077.09;5586372;31;33639;-56
2024/01/16 11:47:02;;;;;;;5.47;3.15;;;;;;;5.45;45.90;100083.47;5583425;31;33678;-57
2024/01/16 11:50:10;;;;;;;7.00;3.78;;;;;;;5.32;46.72;100081.22;5580793;31;33593;-57
2024/01/16 11:53:37;;;;;;;4.97;2.95;;;;;;;5.34;45.15;100089.75;5585422;31;33856;-56
2024/01/16 11:57:11;;;;;;;6.00;3.00;;;;;;;5.44;47.03;100081.88;5575975;31;33548;-56
2024/01/16 12:00:19;;;;;;;5.43;2.87;;;;;;;5.44;46.90;100089.84;5580274;31;34065;-56
2024/01/16 12:03:23;;;;;;;6.78;3.05;;;;;;;5.32;44.62;100081.22;5578398;31;34354;-56
2024/01/16 12:06:37;;;;;;;5.55;3.17;;;;;;;5.38;46.71;100077.56;5585912;31;34464;-56
2024/01/16 12:09:40;;;;;;;5.72;2.75;;;;;;;5.40;45.31;100083.44;5582001;31;33668;-57
2024/01/16 12:12:43;;;;;;;4.40;2.60;;;;;;;5.30;45.94;100075.38;5581645;31;34227;-56
2024/01/16 12:15:46;;;;;;;5.75;2.40;;;;;;;5.41;45.20;100077.84;5583621;31;33643;-56
2024/01/16 12:18:49;;;;;;;10.60;2.55;;;;;;;5.46;48.59;100092.25;5586977;31;33756;-56
2024/01/16 12:21:52;;;;;;;6.03;2.70;;;;;;;5.48;44.91;100077.66;5586131;31;33733;-57
2024/01/16 12:24:58;;;;;;;4.85;2.55;;;;;;;5.65;46.00;100080.97;5584909;31;33636;-57
2024/01/16 12:28:03;;;;;;;4.80;2.87;;;;;;;5.65;43.13;100080.97;5580457;31;34376;-56
2024/01/16 12:31:06;;;;;;;6.50;2.30;;;;;;;5.82;44.27;100070.19;5582655;31;33646;-57
2024/01/16 12:34:08;;;;;;;6.00;2.80;;;;;;;5.83;43.73;100077.13;5585529;31;33720;-56
2024/01/16 12:37:12;;;;;;;6.03;2.33;;;;;;;5.92;43.08;100082.75;5580751;31;33860;-57
2024/01/16 12:40:15;;;;;;;5.97;2.28;;;;;;;6.02;45.55;100079.38;5584555;31;33733;-57
2024/01/16 12:43:18;;;;;;;3.97;2.70;;;;;;;6.09;47.70;100083.44;5583220;31;33778;-56
2024/01/16 12:46:20;;;;;;;15.55;3.08;;;;;;;6.28;45.61;100083.00;5582833;31;33614;-57
2024/01/16 12:49:24;;;;;;;3.92;2.10;;;;;;;6.35;46.73;100079.03;5583773;31;33308;-57
2024/01/16 12:52:29;;;;;;;2.47;1.87;;;;;;;6.15;42.58;100070.16;5581826;31;33669;-56
2024/01/16 12:55:37;;;;;;;3.42;1.90;;;;;;;6.11;42.16;100083.97;5581005;31;34414;-56
2024/01/16 12:58:40;;;;;;;4.30;1.80;;;;;;;5.95;42.09;100084.13;5583307;31;33890;-56
2024/01/16 13:01:46;;;;;;;3.42;2.00;;;;;;;5.74;41.58;100080.50;5582719;31;33750;-56
2024/01/16 13:05:02;;;;;;;2.83;1.60;;;;;;;5.84;43.49;100076.06;5583326;31;34352;-56
2024/01/16 13:08:06;;;;;;;2.85;1.62;;;;;;;5.89;42.38;100083.25;5586037;31;33774;-56
2024/01/16 13:11:12;;;;;;;4.25;1.67;;;;;;;5.65;41.78;100083.63;5583368;31;33667;-56
2024/01/16 13:14:14;;;;;;;3.42;1.60;;;;;;;5.65;40.39;100078.31;5575049;31;33975;-56
2024/01/16 13:17:16;;;;;;;3.87;1.50;;;;;;;5.69;40.24;100091.09;5573518;31;34147;-56
2024/01/16 13:20:19;;;;;;;6.25;2.00;;;;;;;5.73;41.79;100081.53;5582335;31;33671;-56
2024/01/16 13:23:26;;;;;;;4.35;1.92;;;;;;;5.94;41.24;100083.34;5588386;31;33726;-57
2024/01/16 13:26:29;;;;;;;3.22;1.70;;;;;;;5.92;45.60;100088.06;5581969;31;33622;-57
2024/01/16 13:29:35;;;;;;;4.68;1.73;;;;;;;5.93;41.79;100087.06;5588623;31;34355;-56
2024/01/16 13:32:37;;;;;;;3.70;1.50;;;;;;;5.86;39.47;100086.44;5582739;31;33731;-57
2024/01/16 13:35:42;;;;;;;4.25;1.75;;;;;;;5.90;40.46;100087.53;5587506;31;33649;-57
2024/01/16 13:38:45;;;;;;;3.78;1.62;;;;;;;5.96;41.43;100088.37;5577817;31;33556;-56
2024/01/16 13:41:47;;;;;;;4.70;1.80;;;;;;;5.89;39.93;100085.91;5570186;31;33681;-57
2024/01/16 13:44:51;;;;;;;3.42;1.65;;;;;;;5.88;39.20;100090.44;5585148;31;34267;-57
2024/01/16 13:47:54;;;;;;;3.55;1.60;;;;;;;5.92;40.98;100092.59;5589173;31;33653;-57
2024/01/16 13:50:57;;;;;;;4.10;1.75;;;;;;;5.88;38.30;100093.09;5589692;31;33746;-56
2024/01/16 13:53:59;;;;;;;3.92;1.58;;;;;;;5.89;50.93;100093.91;5587867;31;33626;-57
2024/01/16 13:57:03;;;;;;;3.97;1.60;;;;;;;5.95;38.60;100098.22;5588797;31;33585;-57
2024/01/16 14:00:16;;;;;;;4.78;2.00;;;;;;;6.06;39.08;100104.41;5588717;31;34497;-60
2024/01/16 14:03:19;;;;;;;3.22;1.70;;;;;;;6.15;39.74;100100.22;5588337;31;34323;-60
2024/01/16 14:06:22;;;;;;;2.58;1.58;;;;;;;6.14;41.33;100097.81;5588742;31;33740;-60
2024/01/16 14:09:44;;;;;;;2.92;1.80;;;;;;;6.14;37.25;100101.28;5589095;31;33326;-60
2024/01/16 14:12:49;;;;;;;4.50;1.60;;;;;;;6.01;39.52;100096.41;5579446;31;33637;-59
2024/01/16 14:15:52;;;;;;;8.52;1.58;;;;;;;5.95;38.01;100097.44;5586039;31;34396;-60
2024/01/16 14:18:54;;;;;;;4.22;1.60;;;;;;;6.03;46.15;100099.62;5589451;31;33493;-59
2024/01/16 14:21:57;;;;;;;3.33;1.35;;;;;;;6.04;38.51;100102.03;5587807;31;33773;-59
2024/01/16 14:24:59;;;;;;;3.37;1.60;;;;;;;6.08;37.91;100107.63;5583486;31;34399;-59
2024/01/16 14:28:03;;;;;;;3.12;1.50;;;;;;;6.16;40.34;100115.16;5571898;31;35337;-59
2024/01/16 14:31:06;;;;;;;8.38;1.70;;;;;;;6.20;43.54;100120.75;5586785;31;33896;-60
2024/01/16 14:34:13;;;;;;;2.30;1.55;;;;;;;6.18;40.72;100117.53;5587300;31;33601;-60
2024/01/16 14:37:16;;;;;;;;;;;;;;;6.19;40.49;100121.78;5584731;31;34317;-60
2024/01/16 14:40:25;;;;;;;9.13;1.50;;;;;;;6.12;38.85;100122.03;5584655;31;33258;-59
2024/01/16 14:43:27;;;;;;;4.50;1.55;;;;;;;6.07;38.69;100127.31;5588063;31;34377;-60
2024/01/16 14:46:30;;;;;;;4.82;1.60;;;;;;;5.89;41.30;100125.81;5579741;31;33692;-59
2024/01/16 14:49:32;;;;;;;4.18;1.70;;;;;;;5.92;41.05;100119.19;5578199;31;33778;-59
2024/01/16 14:52:36;;;;;;;9.15;2.42;;;;;;;5.83;39.39;100122.34;5571013;31;33770;-60
2024/01/16 14:55:38;;;;;;;3.62;1.80;;;;;;;5.89;38.69;100131.16;5578769;31;34397;-60
2024/01/16 14:58:40;;;;;;;5.32;2.08;;;;;;;5.96;38.06;100125.63;5569230;31;34307;-60
2024/01/16 15:01:44;;;;;;;8.10;1.70;;;;;;;5.96;40.10;100131.78;5581502;31;34380;-60
2024/01/16 15:04:48;;;;;;;4.07;1.60;;;;;;;5.91;38.67;100138.87;5587143;31;33714;-59
2024/01/16 15:07:53;;;;;;;3.22;1.80;;;;;;;5.93;39.65;100144.78;5576487;31;33742;-60
2024/01/16 15:10:59;;;;;;;3.22;1.65;;;;;;;5.96;50.43;100147.75;5569750;32;33721;-57
2024/01/16 15:14:01;;;;;;;5.10;1.83;;;;;;;5.83;39.37;100143.62;5569658;32;33930;-56
2024/01/16 15:17:04;;;;;;;5.32;1.95;;;;;;;5.78;40.16;100132.94;5578821;31;33730;-57
2024/01/16 15:20:10;;;;;;;10.27;2.30;;;;;;;5.86;39.44;100134.31;5569467;32;34289;-57
2024/01/16 15:23:12;;;;;;;12.10;2.35;;;;;;;5.96;40.17;100134.44;5569456;32;34490;-57
2024/01/16 15:26:20;;;;;;;6.35;2.28;;;;;;;6.03;54.93;100136.88;5580024;31;33617;-56
2024/01/16 15:29:23;;;;;;;8.23;2.40;;;;;;;6.00;40.94;100135.53;5586394;31;33651;-57
2024/01/16 15:32:26;;;;;;;8.88;2.28;;;;;;;6.10;54.26;100138.25;5569298;32;33385;-56
2024/01/16 15:35:29;;;;;;;7.85;2.05;;;;;;;6.02;49.67;100133.41;5575175;31;33685;-56
2024/01/16 15:38:31;;;;;;;4.85;2.17;;;;;;;6.01;47.62;100126.47;5588221;31;33748;-56
2024/01/16 15:41:34;;;;;;;28.85;4.20;;;;;;;5.77;43.70;100127.88;5587803;31;33736;-56
2024/01/16 15:44:36;;;;;;;9.63;4.37;;;;;;;5.80;54.02;100138.00;5588069;31;33628;-57
2024/01/16 15:47:39;;;;;;;18.30;5.30;;;;;;;5.78;55.21;100140.91;5585997;31;33687;-57
2024/01/16 15:50:41;;;;;;;16.02;4.50;;;;;;;5.72;44.62;100141.13;5588467;31;33668;-57
2024/01/16 15:53:44;;;;;;;14.05;4.55;;;;;;;5.65;50.56;100142.13;5587765;31;33703;-57
2024/01/16 15:56:47;;;;;;;14.23;6.32;;;;;;;5.67;45.70;100141.09;5585588;31;33759;-57
2024/01/16 15:59:53;;;;;;;8.40;4.55;;;;;;;5.52;44.69;100153.19;5587119;31;33649;-57
2024/01/16 16:02:57;;;;;;;11.70;4.90;;;;;;;5.44;48.55;100158.16;5588807;31;33661;-57
2024/01/16 16:06:00;;;;;;;16.80;8.50;;;;;;;5.37;61.05;100150.41;5587361;31;33737;-57
2024/01/16 16:09:04;;;;;;;12.55;5.53;;;;;;;5.32;58.91;100159.09;5588393;31;33680;-56
2024/01/16 16:12:07;;;;;;;13.43;6.40;;;;;;;5.33;49.84;100171.38;5588806;31;34392;-57
2024/01/16 16:15:09;;;;;;;22.67;8.10;;;;;;;5.31;45.14;100180.63;5574885;31;34377;-57
2024/01/16 16:18:11;;;;;;;12.90;7.10;;;;;;;5.35;43.60;100181.72;5584540;31;33593;-57
2024/01/16 16:21:14;;;;;;;17.48;7.95;;;;;;;5.27;67.18;100196.28;5587418;31;34429;-56
2024/01/16 16:24:17;;;;;;;17.20;9.57;;;;;;;5.23;72.71;100186.37;5582713;31;34283;-57
2024/01/16 16:27:24;;;;;;;20.60;10.57;;;;;;;5.16;51.55;100186.56;5585638;31;33129;-57
2024/01/16 16:30:29;;;;;;;19.40;9.70;;;;;;;5.19;47.54;100192.19;5584733;31;33360;-57
2024/01/16 16:33:31;;;;;;;21.95;10.77;;;;;;;5.04;46.63;100199.22;5587223;31;34349;-57
2024/01/16 16:36:34;;;;;;;23.42;10.60;;;;;;;4.88;46.13;100203.53;5584654;31;33732;-57
